Limestone, Maine
Current Conditions -  °F | °C
As of 12:54 PM on Friday 21 Nov 2014 (Local Time) from KCAR Reporting Station
Broken Clouds Broken Clouds  
Wind Chill: 11°   Ceiling: 3400
Heat Index: 24°   Visibility: 10mi
Dew Point:   Wind: 17mph
Humidity: 53%   Direction: 310°NW
Pressure: 29.83"   Gusts: 29mph
Location:  46.91°N, 67.83°W
Report Text: KCAR 211754Z AUTO 31015G25KT 10SM BKN034 M04/M13 A2983 RMK AO2 SNE1655 SLP116 P0000 60000 T10441128 11044 21089 53020
Loading
Personal Weather Stations






























Interactive Weather Map New forecast layout! Learn more

10-Day Weather Forecast

Advertisements
Track Severe Weather on mobile